createdAt,value
2023-04-16T00:01:18.302Z,86.88
2023-04-16T00:03:46.326Z,86.38
2023-04-16T00:06:14.445Z,86.58
2023-04-16T00:08:43.582Z,86.34
2023-04-16T00:11:11.378Z,86.13
2023-04-16T00:13:39.105Z,86.35
2023-04-16T00:16:09.050Z,86.51
2023-04-16T00:18:36.876Z,86.94
2023-04-16T00:21:04.953Z,86.26
2023-04-16T00:23:32.711Z,86.69
2023-04-16T00:26:00.843Z,86.79
2023-04-16T00:28:28.735Z,86.63
2023-04-16T00:30:56.800Z,86.93
2023-04-16T00:33:25.969Z,87.13
2023-04-16T00:35:53.819Z,87.06
2023-04-16T00:38:21.597Z,87.16
2023-04-16T00:40:49.359Z,86.74
2023-04-16T00:43:22.686Z,87.14
2023-04-16T00:45:50.507Z,87.08
2023-04-16T00:48:18.336Z,87.26
2023-04-16T00:50:47.504Z,87.36
2023-04-16T00:53:15.501Z,87.14
2023-04-16T00:55:43.838Z,87.23
2023-04-16T00:58:11.682Z,87.50
2023-04-16T01:00:39.432Z,87.31
2023-04-16T01:03:07.333Z,87.58
2023-04-16T01:05:35.332Z,87.88
2023-04-16T01:08:04.571Z,87.81
2023-04-16T01:10:32.304Z,87.93
2023-04-16T01:13:00.135Z,87.82
2023-04-16T01:15:27.868Z,88.11
2023-04-16T01:17:55.746Z,87.91
2023-04-16T01:20:23.679Z,87.73
2023-04-16T01:22:52.853Z,87.94
2023-04-16T01:25:20.598Z,88.16
2023-04-16T01:27:50.679Z,88.29
2023-04-16T01:30:19.706Z,87.86
2023-04-16T01:32:48.363Z,87.92
2023-04-16T01:35:18.106Z,87.83
2023-04-16T01:37:46.010Z,88.30
2023-04-16T01:40:15.511Z,88.53
2023-04-16T01:42:43.287Z,88.75
2023-04-16T01:45:11.689Z,88.44
2023-04-16T01:47:39.586Z,88.50
2023-04-16T01:50:08.507Z,88.58
2023-04-16T01:52:37.061Z,88.30
2023-04-16T01:55:05.235Z,88.85
2023-04-16T01:57:34.343Z,88.67
2023-04-16T02:00:02.161Z,88.48
2023-04-16T02:02:30.952Z,88.57
2023-04-16T02:04:58.759Z,89.10
2023-04-16T02:07:27.474Z,88.92
2023-04-16T02:09:55.345Z,89.07
2023-04-16T02:12:23.097Z,89.44
2023-04-16T02:14:52.271Z,89.11
2023-04-16T02:17:20.093Z,89.07
2023-04-16T02:19:48.335Z,89.16
2023-04-16T02:22:16.119Z,88.74
2023-04-16T02:24:43.871Z,89.12
2023-04-16T02:27:11.628Z,89.08
2023-04-16T02:29:39.422Z,88.96
2023-04-16T02:32:08.787Z,89.24
2023-04-16T02:34:36.633Z,89.28
2023-04-16T02:37:04.444Z,89.15
2023-04-16T02:39:32.313Z,88.75
2023-04-16T02:42:01.538Z,89.07
2023-04-16T02:44:29.276Z,89.20
2023-04-16T02:46:57.016Z,88.99
2023-04-16T02:49:26.108Z,88.80
2023-04-16T02:51:53.929Z,89.02
2023-04-16T02:54:21.695Z,88.66
2023-04-16T02:56:49.494Z,88.62
2023-04-16T02:59:17.267Z,88.37
2023-04-16T03:01:45.149Z,88.14
2023-04-16T03:04:13.054Z,88.36
2023-04-16T03:06:42.275Z,87.99
2023-04-16T03:09:10.291Z,87.93
2023-04-16T03:11:38.339Z,88.35
2023-04-16T03:14:06.310Z,88.36
2023-04-16T03:16:34.093Z,88.05
2023-04-16T03:19:01.942Z,87.59
2023-04-16T03:21:29.822Z,87.99
2023-04-16T03:23:58.963Z,88.01
2023-04-16T03:26:27.134Z,87.61
2023-04-16T03:28:54.904Z,87.80
2023-04-16T03:31:25.434Z,87.90
2023-04-16T03:33:53.275Z,88.06
2023-04-16T03:36:21.138Z,87.74
2023-04-16T03:38:48.954Z,87.79
2023-04-16T03:41:18.055Z,87.41
2023-04-16T03:43:45.920Z,87.26
2023-04-16T03:46:13.710Z,87.34
2023-04-16T03:48:41.561Z,87.30
2023-04-16T03:51:09.384Z,87.39
2023-04-16T03:53:37.190Z,86.74
2023-04-16T03:56:05.417Z,86.71
2023-04-16T03:58:34.573Z,86.79
2023-04-16T04:01:02.334Z,86.78
2023-04-16T04:03:30.360Z,86.65
2023-04-16T04:05:58.343Z,86.79
2023-04-16T04:08:26.242Z,86.27
2023-04-16T04:10:54.035Z,86.46
2023-04-16T04:13:21.830Z,86.52
2023-04-16T04:15:50.977Z,86.34
2023-04-16T04:18:18.793Z,85.98
2023-04-16T04:20:46.584Z,86.30
2023-04-16T04:23:14.379Z,86.03
2023-04-16T04:25:42.107Z,86.25
2023-04-16T04:28:09.951Z,86.28
2023-04-16T04:30:37.724Z,86.14
2023-04-16T04:33:07.077Z,86.24
2023-04-16T04:35:35.182Z,85.84
2023-04-16T04:38:03.800Z,86.12
2023-04-16T04:40:31.566Z,86.21
2023-04-16T04:42:59.339Z,86.19
2023-04-16T04:45:27.958Z,86.10
2023-04-16T04:47:56.901Z,86.21
2023-04-16T04:50:26.114Z,86.05
2023-04-16T04:52:53.893Z,86.21
2023-04-16T04:55:21.877Z,86.06
2023-04-16T04:57:49.972Z,86.22
2023-04-16T05:00:17.815Z,86.26
2023-04-16T05:02:45.955Z,86.38
2023-04-16T05:05:13.813Z,86.25
2023-04-16T05:07:42.994Z,86.22
2023-04-16T05:10:11.142Z,86.08
2023-04-16T05:12:40.284Z,86.18
2023-04-16T05:15:09.198Z,86.02
2023-04-16T05:17:37.048Z,85.74
2023-04-16T05:20:05.505Z,86.08
2023-04-16T05:22:34.094Z,85.71
2023-04-16T05:25:03.367Z,85.62
2023-04-16T05:27:31.254Z,85.67
2023-04-16T05:29:59.017Z,85.88
2023-04-16T05:32:27.730Z,85.96
2023-04-16T05:34:55.671Z,85.66
2023-04-16T05:37:23.458Z,85.83
2023-04-16T05:39:51.262Z,85.75
2023-04-16T05:42:20.482Z,85.80
2023-04-16T05:44:48.291Z,85.87
2023-04-16T05:47:16.278Z,86.17
2023-04-16T05:49:44.192Z,85.73
2023-04-16T05:52:11.963Z,85.86
2023-04-16T05:54:39.728Z,85.95
2023-04-16T05:57:07.507Z,85.90
2023-04-16T05:59:36.684Z,86.32
2023-04-16T06:02:04.540Z,86.33
2023-04-16T06:04:32.340Z,86.08
2023-04-16T06:07:00.107Z,86.12
2023-04-16T06:09:28.306Z,86.02
2023-04-16T06:11:56.519Z,86.17
2023-04-16T06:14:24.305Z,86.43
2023-04-16T06:16:53.442Z,86.35
2023-04-16T06:19:21.403Z,86.21
2023-04-16T06:21:49.163Z,86.46
2023-04-16T06:24:18.477Z,86.50
2023-04-16T06:26:46.259Z,86.59
2023-04-16T06:29:14.136Z,86.69
2023-04-16T06:31:41.929Z,86.68
2023-04-16T06:34:11.151Z,86.37
2023-04-16T06:36:39.050Z,86.90
2023-04-16T06:39:06.920Z,86.65
2023-04-16T06:41:34.715Z,86.15
2023-04-16T06:44:02.496Z,87.01
2023-04-16T06:46:30.445Z,86.53
2023-04-16T06:48:58.220Z,86.82
2023-04-16T06:51:27.431Z,86.69
2023-04-16T06:53:55.253Z,86.68
2023-04-16T06:56:23.107Z,86.67
2023-04-16T06:58:51.465Z,86.66
2023-04-16T07:01:19.794Z,86.55
2023-04-16T07:03:47.921Z,86.30
2023-04-16T07:06:15.879Z,86.32
2023-04-16T07:08:45.074Z,86.53
2023-04-16T07:11:12.889Z,86.31
2023-04-16T07:13:40.650Z,86.12
2023-04-16T07:16:08.791Z,86.37
2023-04-16T07:18:36.622Z,86.11
2023-04-16T07:21:05.070Z,86.32
2023-04-16T07:23:32.945Z,86.28
2023-04-16T07:26:02.096Z,86.24
2023-04-16T07:28:29.873Z,86.35
2023-04-16T07:30:57.708Z,86.33
2023-04-16T07:33:26.111Z,86.21
2023-04-16T07:35:53.916Z,86.11
2023-04-16T07:38:21.715Z,85.93
2023-04-16T07:40:49.487Z,86.30
2023-04-16T07:43:18.644Z,85.95
2023-04-16T07:45:46.484Z,85.88
2023-04-16T07:48:14.278Z,86.08
2023-04-16T07:50:43.644Z,86.10
2023-04-16T07:53:11.485Z,85.92
2023-04-16T07:55:39.239Z,86.09
2023-04-16T07:58:09.450Z,86.41
2023-04-16T08:00:39.492Z,86.14
2023-04-16T08:03:07.484Z,86.09
2023-04-16T08:05:35.378Z,86.08
2023-04-16T08:08:03.293Z,85.80
2023-04-16T08:10:31.098Z,85.74
2023-04-16T08:12:58.847Z,85.75
2023-04-16T08:15:26.722Z,85.88
2023-04-16T08:17:55.875Z,85.84
2023-04-16T08:20:23.720Z,86.09
2023-04-16T08:22:51.541Z,86.09
2023-04-16T08:25:20.258Z,86.07
2023-04-16T08:27:48.014Z,86.28
2023-04-16T08:30:16.748Z,86.22
2023-04-16T08:32:44.722Z,86.46
2023-04-16T08:35:14.014Z,86.54
2023-04-16T08:37:41.805Z,86.10
2023-04-16T08:40:10.581Z,86.47
2023-04-16T08:42:42.163Z,86.22
2023-04-16T08:45:15.571Z,86.07
2023-04-16T08:47:47.247Z,86.48
2023-04-16T08:50:17.444Z,86.12
2023-04-16T08:52:48.176Z,86.43
2023-04-16T08:55:17.710Z,86.49
2023-04-16T08:57:49.182Z,86.53
2023-04-16T09:00:17.627Z,86.69
2023-04-16T09:02:45.560Z,86.65
2023-04-16T09:05:18.988Z,86.63
2023-04-16T09:07:47.391Z,86.62
2023-04-16T09:10:16.088Z,86.61
2023-04-16T09:12:44.470Z,86.74
2023-04-16T09:15:13.305Z,86.89
2023-04-16T09:17:41.429Z,86.57
2023-04-16T09:20:11.086Z,86.79
2023-04-16T09:22:41.164Z,86.60
2023-04-16T09:25:09.743Z,86.41
2023-04-16T09:27:37.808Z,86.47
2023-04-16T09:30:21.759Z,86.35
2023-04-16T09:32:49.811Z,86.22
2023-04-16T09:35:19.077Z,86.01
2023-04-16T09:37:57.805Z,86.03
2023-04-16T09:40:26.201Z,86.01
2023-04-16T09:42:56.110Z,85.78
2023-04-16T09:45:24.489Z,85.71
2023-04-16T09:47:52.437Z,85.48
2023-04-16T09:50:21.315Z,85.57
2023-04-16T09:52:51.648Z,85.91
2023-04-16T09:55:24.216Z,85.86
2023-04-16T09:57:59.975Z,86.06
2023-04-16T10:00:27.844Z,86.04
2023-04-16T10:03:04.984Z,86.13
2023-04-16T10:05:32.875Z,85.73
2023-04-16T10:08:02.720Z,85.84
2023-04-16T10:10:31.022Z,86.06
2023-04-16T10:12:59.221Z,85.85
2023-04-16T10:15:27.186Z,85.73
2023-04-16T10:17:55.323Z,85.51
2023-04-16T10:20:24.099Z,85.78
2023-04-16T10:22:52.039Z,85.45
2023-04-16T10:25:21.621Z,85.58
2023-04-16T10:27:49.383Z,85.16
2023-04-16T10:30:18.739Z,85.29
2023-04-16T10:32:46.997Z,85.04
2023-04-16T10:35:17.459Z,84.84
2023-04-16T10:37:45.404Z,85.19
2023-04-16T10:40:28.159Z,84.93
2023-04-16T10:42:57.371Z,85.31
2023-04-16T10:45:31.541Z,85.29
2023-04-16T10:47:59.571Z,85.30
2023-04-16T10:50:35.774Z,84.94
2023-04-16T10:53:25.393Z,84.85
2023-04-16T10:56:12.973Z,84.78
2023-04-16T10:58:40.842Z,84.56
2023-04-16T11:01:13.251Z,84.55
2023-04-16T11:03:45.661Z,83.93
2023-04-16T11:06:17.869Z,83.91
2023-04-16T11:08:54.586Z,83.95
2023-04-16T11:11:24.706Z,83.79
2023-04-16T11:13:56.848Z,83.91
2023-04-16T11:16:26.030Z,83.37
2023-04-16T11:18:56.245Z,83.36
2023-04-16T11:21:25.266Z,83.21
2023-04-16T11:23:54.567Z,82.72
2023-04-16T11:26:28.021Z,82.33
2023-04-16T11:28:57.154Z,82.20
2023-04-16T11:31:27.246Z,81.85
2023-04-16T11:33:57.138Z,81.85
2023-04-16T11:36:26.941Z,81.66
2023-04-16T11:39:02.623Z,81.42
2023-04-16T11:41:31.781Z,81.02
2023-04-16T11:43:59.547Z,80.73
2023-04-16T11:46:39.340Z,80.22
2023-04-16T11:49:07.390Z,79.75
2023-04-16T11:51:40.955Z,79.44
2023-04-16T11:54:11.831Z,80.08
2023-04-16T11:56:47.716Z,79.24
2023-04-16T11:59:17.707Z,78.72
2023-04-16T12:01:48.243Z,78.70
2023-04-16T12:04:17.090Z,78.45
2023-04-16T12:07:06.731Z,77.88
2023-04-16T12:09:37.901Z,77.93
2023-04-16T12:12:26.419Z,77.67
2023-04-16T12:14:54.510Z,77.13
2023-04-16T12:17:22.768Z,77.02
2023-04-16T12:19:52.311Z,75.91
2023-04-16T12:22:28.514Z,76.09
2023-04-16T12:25:04.152Z,75.68
2023-04-16T12:27:47.955Z,75.70
2023-04-16T12:30:17.291Z,75.39
2023-04-16T12:32:47.294Z,75.49
2023-04-16T12:35:15.542Z,74.80
2023-04-16T12:37:43.370Z,74.37
2023-04-16T12:40:12.184Z,74.36
2023-04-16T12:42:39.964Z,74.18
2023-04-16T12:45:09.598Z,74.14
2023-04-16T12:47:37.493Z,73.62
2023-04-16T12:50:05.846Z,73.46
2023-04-16T12:52:33.712Z,73.13
2023-04-16T12:55:02.757Z,71.87
2023-04-16T12:57:30.531Z,71.62
2023-04-16T12:59:59.239Z,72.34
2023-04-16T13:02:28.662Z,71.76
2023-04-16T13:04:56.548Z,71.74
2023-04-16T13:07:26.683Z,71.36
2023-04-16T13:09:54.460Z,71.58
2023-04-16T13:12:22.311Z,71.06
2023-04-16T13:14:50.082Z,70.75
2023-04-16T13:17:17.923Z,69.75
2023-04-16T13:19:47.294Z,69.98
2023-04-16T13:22:15.135Z,69.71
2023-04-16T13:24:42.961Z,68.84
2023-04-16T13:27:11.477Z,68.77
2023-04-16T13:29:39.302Z,68.20
2023-04-16T13:32:07.513Z,67.42
2023-04-16T13:34:35.863Z,67.88
2023-04-16T13:37:05.030Z,67.52
2023-04-16T13:39:32.844Z,68.22
2023-04-16T13:42:00.681Z,68.18
2023-04-16T13:44:28.476Z,67.67
2023-04-16T13:46:56.743Z,68.15
2023-04-16T13:49:24.586Z,68.28
2023-04-16T13:51:52.393Z,68.38
2023-04-16T13:54:21.606Z,68.18
2023-04-16T13:56:51.157Z,68.23
2023-04-16T13:59:20.192Z,67.28
2023-04-16T14:01:47.963Z,67.09
2023-04-16T14:04:16.017Z,67.28
2023-04-16T14:06:43.849Z,67.34
2023-04-16T14:09:11.776Z,67.21
2023-04-16T14:11:41.164Z,67.43
2023-04-16T14:14:08.976Z,67.29
2023-04-16T14:16:37.014Z,67.23
2023-04-16T14:19:04.821Z,66.39
2023-04-16T14:21:32.615Z,65.55
2023-04-16T14:24:00.360Z,64.24
2023-04-16T14:26:28.224Z,63.75
2023-04-16T14:28:57.419Z,63.19
2023-04-16T14:31:25.708Z,62.90
2023-04-16T14:33:53.538Z,62.21
2023-04-16T14:36:21.315Z,61.92
2023-04-16T14:38:49.285Z,61.85
2023-04-16T14:41:17.081Z,61.37
2023-04-16T14:43:45.095Z,60.91
2023-04-16T14:46:17.883Z,60.64
2023-04-16T14:48:46.077Z,60.80
2023-04-16T14:51:13.880Z,59.74
2023-04-16T14:53:41.722Z,60.04
2023-04-16T14:56:09.818Z,59.75
2023-04-16T14:58:39.400Z,59.95
2023-04-16T15:01:07.420Z,59.65
2023-04-16T15:03:45.186Z,59.95
2023-04-16T15:06:13.819Z,58.82
2023-04-16T15:08:41.744Z,59.03
2023-04-16T15:11:09.623Z,59.61
2023-04-16T15:13:37.478Z,59.33
2023-04-16T15:16:10.114Z,59.67
2023-04-16T15:18:39.468Z,58.96
2023-04-16T15:21:07.632Z,59.28
2023-04-16T15:23:35.798Z,58.85
2023-04-16T15:26:07.171Z,61.66
2023-04-16T15:28:38.062Z,61.30
2023-04-16T15:31:06.241Z,58.58
2023-04-16T15:33:34.222Z,59.35
2023-04-16T15:36:03.901Z,58.18
2023-04-16T15:38:31.844Z,57.38
2023-04-16T15:41:00.815Z,58.26
2023-04-16T15:43:30.056Z,57.96
2023-04-16T15:45:57.972Z,55.63
2023-04-16T15:48:25.854Z,56.26
2023-04-16T15:50:53.742Z,55.69
2023-04-16T15:53:22.916Z,55.59
2023-04-16T15:55:52.834Z,55.67
2023-04-16T15:58:20.972Z,56.14
2023-04-16T16:00:50.195Z,55.77
2023-04-16T16:03:18.694Z,56.07
2023-04-16T16:05:48.186Z,56.16
2023-04-16T16:08:16.225Z,56.77
2023-04-16T16:10:45.351Z,56.64
2023-04-16T16:13:17.983Z,57.86
2023-04-16T16:15:45.846Z,58.45
2023-04-16T16:18:13.766Z,59.32
2023-04-16T16:20:41.575Z,59.29
2023-04-16T16:23:09.394Z,59.58
2023-04-16T16:25:37.288Z,59.56
2023-04-16T16:28:06.810Z,60.35
2023-04-16T16:30:34.766Z,60.39
2023-04-16T16:33:02.652Z,61.09
2023-04-16T16:35:30.452Z,61.74
2023-04-16T16:37:59.500Z,62.37
2023-04-16T16:40:27.325Z,62.10
2023-04-16T16:42:55.182Z,62.49
2023-04-16T16:45:26.067Z,62.75
2023-04-16T16:47:54.895Z,63.53
2023-04-16T16:50:22.788Z,63.17
2023-04-16T16:52:50.557Z,63.25
2023-04-16T16:55:19.016Z,63.64
2023-04-16T16:57:46.931Z,63.84
2023-04-16T17:00:16.906Z,63.66
2023-04-16T17:02:46.493Z,63.90
2023-04-16T17:05:14.509Z,64.72
2023-04-16T17:07:42.326Z,64.55
2023-04-16T17:10:13.145Z,65.08
2023-04-16T17:12:41.006Z,64.72
2023-04-16T17:15:09.686Z,64.65
2023-04-16T17:17:37.529Z,65.81
2023-04-16T17:20:09.707Z,65.99
2023-04-16T17:22:38.061Z,65.52
2023-04-16T17:25:07.608Z,66.53
2023-04-16T17:27:35.864Z,66.18
2023-04-16T17:30:05.396Z,66.84
2023-04-16T17:32:33.610Z,66.80
2023-04-16T17:35:04.145Z,66.80
2023-04-16T17:37:34.081Z,67.07
2023-04-16T17:40:02.050Z,67.66
2023-04-16T17:42:29.917Z,67.36
2023-04-16T17:44:57.683Z,67.64
2023-04-16T17:47:25.557Z,67.49
2023-04-16T17:49:54.470Z,67.71
2023-04-16T17:52:22.379Z,68.03
2023-04-16T17:54:53.192Z,68.27
2023-04-16T17:57:20.990Z,67.82
2023-04-16T17:59:48.822Z,67.71
2023-04-16T18:02:16.949Z,69.92
2023-04-16T18:04:45.106Z,70.89
2023-04-16T18:07:13.196Z,69.17
2023-04-16T18:09:41.056Z,68.69
2023-04-16T18:12:10.422Z,68.50
2023-04-16T18:14:38.829Z,68.61
2023-04-16T18:17:06.845Z,69.42
2023-04-16T18:19:35.571Z,69.64
2023-04-16T18:22:03.427Z,70.11
2023-04-16T18:24:33.240Z,70.90
2023-04-16T18:27:01.546Z,71.25
2023-04-16T18:29:33.711Z,70.96
2023-04-16T18:32:04.384Z,71.53
2023-04-16T18:34:32.852Z,71.76
2023-04-16T18:37:00.809Z,72.17
2023-04-16T18:39:28.588Z,72.21
2023-04-16T18:41:56.644Z,71.98
2023-04-16T18:44:24.514Z,72.55
2023-04-16T18:46:53.759Z,72.20
2023-04-16T18:49:21.577Z,72.89
2023-04-16T18:51:49.389Z,72.70
2023-04-16T18:54:17.181Z,73.19
2023-04-16T18:56:45.082Z,72.80
2023-04-16T18:59:13.125Z,73.33
2023-04-16T19:01:41.323Z,73.60
2023-04-16T19:04:10.764Z,73.76
2023-04-16T19:06:38.604Z,73.94
2023-04-16T19:09:06.776Z,73.56
2023-04-16T19:11:35.213Z,74.18
2023-04-16T19:14:05.318Z,74.27
2023-04-16T19:16:33.333Z,74.59
2023-04-16T19:19:01.349Z,74.78
2023-04-16T19:21:30.802Z,74.33
2023-04-16T19:23:59.513Z,74.80
2023-04-16T19:26:28.053Z,75.05
2023-04-16T19:28:55.838Z,74.95
2023-04-16T19:31:26.011Z,74.72
2023-04-16T19:33:53.789Z,75.02
2023-04-16T19:36:21.600Z,75.21
2023-04-16T19:38:50.780Z,75.29
2023-04-16T19:41:18.604Z,75.27
2023-04-16T19:43:46.385Z,75.55
2023-04-16T19:46:15.509Z,75.46
2023-04-16T19:48:57.464Z,75.16
2023-04-16T19:51:25.426Z,75.24
2023-04-16T19:53:54.789Z,74.92
2023-04-16T19:56:22.624Z,75.29
2023-04-16T19:58:50.379Z,75.72
2023-04-16T20:01:18.614Z,75.71
2023-04-16T20:03:46.752Z,76.10
2023-04-16T20:06:14.881Z,76.06
2023-04-16T20:08:44.637Z,76.10
2023-04-16T20:11:14.007Z,76.04
2023-04-16T20:13:43.265Z,76.27
2023-04-16T20:16:13.657Z,76.20
2023-04-16T20:18:42.628Z,76.14
2023-04-16T20:21:10.621Z,76.45
2023-04-16T20:23:38.969Z,76.79
2023-04-16T20:26:07.685Z,76.67
2023-04-16T20:28:37.155Z,76.87
2023-04-16T20:31:05.109Z,76.84
2023-04-16T20:33:33.300Z,76.73
2023-04-16T20:36:01.217Z,76.71
2023-04-16T20:38:32.446Z,76.91
2023-04-16T20:41:10.290Z,76.80
2023-04-16T20:43:40.821Z,76.73
2023-04-16T20:46:08.899Z,76.59
2023-04-16T20:48:39.999Z,76.88
2023-04-16T20:51:09.737Z,76.68
2023-04-16T20:53:38.413Z,76.46
2023-04-16T20:56:09.103Z,76.69
2023-04-16T20:58:37.025Z,76.79
2023-04-16T21:01:06.688Z,76.79
2023-04-16T21:03:35.212Z,76.67
2023-04-16T21:06:03.762Z,76.72
2023-04-16T21:08:31.615Z,76.25
2023-04-16T21:10:59.665Z,76.37
2023-04-16T21:13:27.549Z,76.22
2023-04-16T21:15:55.428Z,76.33
2023-04-16T21:18:24.685Z,76.35
2023-04-16T21:20:52.807Z,76.15
2023-04-16T21:23:20.753Z,76.33
2023-04-16T21:25:49.202Z,76.29
2023-04-16T21:28:17.195Z,76.37
2023-04-16T21:30:45.087Z,76.40
2023-04-16T21:33:16.250Z,76.30
2023-04-16T21:35:45.527Z,76.47
2023-04-16T21:38:13.521Z,76.46
2023-04-16T21:40:41.708Z,76.14
2023-04-16T21:43:09.523Z,76.13
2023-04-16T21:45:37.572Z,76.29
2023-04-16T21:48:05.684Z,76.37
2023-04-16T21:50:33.527Z,75.95
2023-04-16T21:53:06.749Z,76.47
2023-04-16T21:55:35.900Z,76.50
2023-04-16T21:58:03.829Z,76.17
2023-04-16T22:00:31.637Z,76.70
2023-04-16T22:03:00.367Z,76.73
2023-04-16T22:05:29.028Z,76.89
2023-04-16T22:07:57.049Z,76.81
2023-04-16T22:10:26.341Z,76.82
2023-04-16T22:12:55.101Z,77.00
2023-04-16T22:15:22.917Z,76.98
2023-04-16T22:17:51.797Z,77.13
2023-04-16T22:20:20.338Z,77.39
2023-04-16T22:22:48.216Z,77.61
2023-04-16T22:25:16.369Z,77.07
2023-04-16T22:27:46.072Z,77.38
2023-04-16T22:30:14.522Z,77.58
2023-04-16T22:32:42.369Z,77.46
2023-04-16T22:35:10.856Z,77.51
2023-04-16T22:37:38.882Z,77.37
2023-04-16T22:40:09.912Z,77.76
2023-04-16T22:42:37.800Z,77.51
2023-04-16T22:45:08.609Z,77.67
2023-04-16T22:47:36.500Z,77.70
2023-04-16T22:50:04.975Z,77.61
2023-04-16T22:52:32.944Z,77.69
2023-04-16T22:55:00.700Z,77.91
2023-04-16T22:57:28.878Z,77.79
2023-04-16T22:59:57.463Z,77.64
2023-04-16T23:02:27.096Z,77.59
2023-04-16T23:04:54.958Z,77.93
2023-04-16T23:07:23.196Z,78.13
2023-04-16T23:09:51.351Z,77.93
2023-04-16T23:12:19.230Z,78.38
2023-04-16T23:14:48.260Z,78.13
2023-04-16T23:17:16.309Z,78.23
2023-04-16T23:19:45.744Z,78.44
2023-04-16T23:22:13.581Z,78.51
2023-04-16T23:24:41.338Z,78.65
2023-04-16T23:27:09.118Z,78.74
2023-04-16T23:29:36.889Z,79.38
2023-04-16T23:32:04.890Z,79.39
2023-04-16T23:34:32.718Z,79.07
2023-04-16T23:37:01.879Z,79.26
2023-04-16T23:39:29.670Z,79.29
2023-04-16T23:41:58.208Z,79.70
2023-04-16T23:44:26.023Z,79.26
2023-04-16T23:46:53.836Z,79.48
2023-04-16T23:49:21.718Z,79.81
2023-04-16T23:51:49.496Z,79.59
2023-04-16T23:54:18.675Z,80.20
2023-04-16T23:56:46.556Z,80.13
2023-04-16T23:59:14.611Z,80.51
